Milford, MA (01757)

7:37 AM EDT en Septiembre 02, 2014 (GMT -0400)
Congress St | Change Station
CLOSE
Current Station
Estación meteorológica personal
Location: Milford, MA
Altura: 394 ft
Estaciones meteorológicas cercanas

Alt 394 ft 42.15 °N, 71.53 °W | Updated 0 second ago

Despejado
Despejado
71.0 ° F
Sensación térmica 71.0 ° F
N
3.7
Viento Variable Viento desde SO
Gusts 5.8 mph

Hoy
Alta -- | Baja -- ° F
--% Posibilidad de precipitaciones
Ayer
Alta -- | Baja -- ° F
Precip. -- pul
6:12 AM 7:18 PM
Creciente, 50% visible
Presión 29.93 pul
Visibilidad 2.5 Millas
Nubes Nubes dispersas 200 ft
Punto de rocío 70 ° F
Humedad 97%
Precipitaciones 0.00 pul
Espesor de la nieve No disponible.
UV 0.0 de una escala de 12
Polen 8.20 de una escala de 12
Ozono Buena
PM2.5 Buena
Flu Activity No disponible.
METAR KSFZ 021115Z 00000KT 2 1/2SM SCT002 22/18 A2993 RMK AO1

More Conditions Fewer Conditions

Presión 29.93 pul
Visibilidad 2.5 Millas
Nubes Nubes dispersas 200 ft
Punto de rocío 70 ° F
Humedad 97%
Precipitaciones 0.00 pul
Espesor de la nieve No disponible.
UV 0.0 de una escala de 12
Polen 8.20 de una escala de 12
Ozono Buena
PM2.5 Buena
Flu Activity No disponible.
METAR KSFZ 021115Z 00000KT 2 1/2SM SCT002 22/18 A2993 RMK AO1

More Conditions Fewer Conditions

10-Day Weather Forecast

Almanac

Astronomía

Sep. 02, 2014 Salida Puesta
Hora real 6:12 AM EDT 7:18 PM EDT
Crepúsculo civil 5:43 AM EDT 7:46 PM EDT
Crepúsculo náutico 5:09 AM EDT 8:21 PM EDT
Crepúsculo astronómico 4:33 AM EDT 8:56 PM EDT
Luna 2:01 PM EDT Sin puesta de luna
Horas de luz 14h 03m
Horas de luz
13h 05m
Tomorrow will be 2m 45s shorter.
Creciente, 50% of the Moon is Illuminated
Hoy
Creciente
Sep 8
Luna llena
Sep 15
Cuarto menguante
Sep 24
Nueva
Oct 1
Cuarto creciente

Extremos de hoy

Máximos del estado Bajos del estado

Community

WunderPhotos

Upload Photos

1,749,621 ¡fotos cargadas!

WunderBlogs® & News

By Dr. Jeff Masters
Director of Meteorology, Weather Underground
By Kari Strenfel
Meteorologist, Weather Underground
By Christopher C. Burt
Weather Historian, Weather Underground
September 2, 2014
September 2, 2014
September 2, 2014

Nearby

Calidad del aire

  Calidad del aire Índice AQ Contaminante
Ayer Buena
OZONE
Ayer Buena
PM2.5
Real Buena
PM2.5
Real Buena
OZONE
Martes Moderada
PM2.5
Martes Buena
OZONE

Grosos de nieve

Estación Profundido Altura
No tenemos constancia de nieve nueva.

Actividad de terremotos

Ciudad Distance Mag. Tiempo y dato
No hay informes recientes de la actividad sísmica.
Magnitud mínima muestra es 2,5.

Temperaturas de aguas costeras

Lugar Temperatura
Newport, RI 70.0 ° F
Quonset Point, RI 72.0 ° F
Conimicut Light, RI 73.9 ° F

Estaciones meteorológicas cercanas